createdAt,value
2023-04-25T00:00:29.366Z,16.10
2023-04-25T00:03:19.773Z,15.50
2023-04-25T00:05:49.042Z,16.00
2023-04-25T00:08:17.731Z,15.60
2023-04-25T00:10:45.904Z,17.20
2023-04-25T00:13:14.634Z,16.10
2023-04-25T00:15:42.758Z,16.10
2023-04-25T00:18:10.743Z,15.70
2023-04-25T00:20:45.845Z,14.80
2023-04-25T00:23:21.071Z,14.10
2023-04-25T00:25:50.756Z,14.10
2023-04-25T00:28:18.689Z,14.90
2023-04-25T00:30:47.243Z,13.60
2023-04-25T00:33:15.289Z,14.40
2023-04-25T00:35:43.632Z,13.30
2023-04-25T00:38:12.328Z,13.30
2023-04-25T00:40:40.433Z,13.20
2023-04-25T00:43:08.542Z,13.20
2023-04-25T00:45:40.800Z,13.40
2023-04-25T00:48:09.055Z,14.10
2023-04-25T00:50:38.090Z,14.00
2023-04-25T00:53:06.570Z,12.90
2023-04-25T00:55:37.198Z,12.90
2023-04-25T00:58:05.778Z,13.60
2023-04-25T01:00:34.267Z,13.30
2023-04-25T01:03:04.633Z,15.00
2023-04-25T01:08:00.711Z,13.80
2023-04-25T01:10:29.338Z,14.40
2023-04-25T01:12:57.981Z,13.60
2023-04-25T01:15:25.827Z,13.10
2023-04-25T01:17:56.840Z,14.30
2023-04-25T01:20:26.098Z,13.60
2023-04-25T01:22:54.784Z,14.20
2023-04-25T01:25:24.163Z,14.20
2023-04-25T01:27:52.812Z,14.20
2023-04-25T01:30:21.493Z,14.10
2023-04-25T01:32:50.709Z,13.20
2023-04-25T01:35:18.587Z,13.70
2023-04-25T01:37:46.881Z,14.20
2023-04-25T01:40:15.403Z,14.20
2023-04-25T01:42:45.035Z,14.60
2023-04-25T01:45:14.223Z,15.00
2023-04-25T01:47:44.398Z,14.60
2023-04-25T01:50:12.590Z,13.60
2023-04-25T01:52:40.892Z,13.40
2023-04-25T01:55:10.857Z,14.40
2023-04-25T01:57:42.606Z,13.70
2023-04-25T02:00:11.981Z,15.40
2023-04-25T02:02:43.007Z,14.60
2023-04-25T02:05:24.143Z,14.20
2023-04-25T02:07:53.478Z,15.10
2023-04-25T02:10:21.476Z,14.30
2023-04-25T02:13:06.982Z,14.20
2023-04-25T02:15:43.051Z,14.40
2023-04-25T02:18:17.880Z,15.70
2023-04-25T02:20:47.356Z,15.60
2023-04-25T02:23:16.498Z,16.20
2023-04-25T02:25:44.813Z,14.60
2023-04-25T02:28:13.005Z,13.90
2023-04-25T02:30:41.022Z,13.80
2023-04-25T02:33:09.479Z,13.80
2023-04-25T02:35:37.594Z,14.10
2023-04-25T02:38:05.635Z,14.50
2023-04-25T02:40:35.403Z,14.10
2023-04-25T02:43:03.564Z,13.10
2023-04-25T02:45:31.823Z,13.10
2023-04-25T02:47:59.919Z,13.80
2023-04-25T02:50:27.945Z,14.40
2023-04-25T02:52:56.517Z,14.30
2023-04-25T02:55:28.528Z,13.90
2023-04-25T02:57:57.384Z,12.60
2023-04-25T03:00:39.827Z,12.60
2023-04-25T03:03:08.169Z,12.50
2023-04-25T03:05:36.459Z,12.40
2023-04-25T03:08:04.874Z,13.30
2023-04-25T03:10:33.981Z,14.70
2023-04-25T03:13:05.209Z,15.20
2023-04-25T03:15:33.666Z,18.80
2023-04-25T03:18:02.164Z,19.50
2023-04-25T03:20:30.739Z,20.70
2023-04-25T03:22:58.812Z,19.90
2023-04-25T03:25:27.296Z,17.00
2023-04-25T03:27:55.429Z,14.90
2023-04-25T03:30:24.243Z,14.20
2023-04-25T03:32:52.564Z,13.20
2023-04-25T03:35:21.588Z,14.50
2023-04-25T03:37:49.546Z,14.90
2023-04-25T03:40:21.515Z,15.30
2023-04-25T03:43:07.400Z,17.40
2023-04-25T03:45:35.966Z,16.30
2023-04-25T03:48:04.538Z,12.70
2023-04-25T03:50:32.743Z,11.10
2023-04-25T03:53:00.893Z,10.00
2023-04-25T03:55:31.904Z,8.70
2023-04-25T03:58:01.032Z,7.30
2023-04-25T04:00:29.186Z,6.60
2023-04-25T04:02:58.673Z,6.30
2023-04-25T04:05:27.910Z,6.70
2023-04-25T04:07:58.204Z,7.00
2023-04-25T04:10:27.477Z,6.80
2023-04-25T04:15:25.241Z,5.10
2023-04-25T04:17:53.921Z,5.10
2023-04-25T04:20:22.892Z,5.50
2023-04-25T04:22:51.486Z,5.60
2023-04-25T04:25:21.349Z,5.30
2023-04-25T04:28:09.433Z,5.00
2023-04-25T04:30:43.727Z,4.30
2023-04-25T04:33:13.479Z,5.20
2023-04-25T04:35:43.042Z,3.70
2023-04-25T04:38:12.946Z,4.80
2023-04-25T04:40:40.896Z,4.80
2023-04-25T04:43:21.617Z,5.20
2023-04-25T04:46:14.293Z,5.00
2023-04-25T04:49:14.926Z,5.10
2023-04-25T04:51:45.796Z,4.90
2023-04-25T04:54:36.707Z,4.90
2023-04-25T04:57:25.159Z,5.60
2023-04-25T05:00:13.706Z,5.90
2023-04-25T05:03:02.466Z,6.50
2023-04-25T05:05:44.704Z,6.00
2023-04-25T05:08:31.342Z,6.40
2023-04-25T05:11:15.718Z,5.60
2023-04-25T05:14:13.246Z,5.50
2023-04-25T05:17:07.934Z,6.00
2023-04-25T05:19:54.331Z,6.10
2023-04-25T05:22:54.514Z,5.50
2023-04-25T05:25:54.738Z,5.60
2023-04-25T05:28:44.775Z,6.60
2023-04-25T05:31:34.225Z,6.00
2023-04-25T05:34:31.851Z,4.90
2023-04-25T05:37:06.620Z,5.40
2023-04-25T05:39:39.494Z,6.40
2023-04-25T05:42:39.973Z,6.70
2023-04-25T05:45:24.320Z,7.20
2023-04-25T05:48:29.377Z,7.80
2023-04-25T05:51:07.067Z,7.60
2023-04-25T05:56:28.966Z,6.60
2023-04-25T05:58:58.621Z,6.20
2023-04-25T06:01:27.633Z,7.40
2023-04-25T06:03:56.603Z,7.80
2023-04-25T06:06:25.713Z,6.20
2023-04-25T06:08:53.608Z,6.20
2023-04-25T06:11:22.405Z,5.00
2023-04-25T06:13:50.823Z,6.50
2023-04-25T06:16:19.207Z,4.10
2023-04-25T06:18:47.298Z,5.20
2023-04-25T06:21:17.450Z,5.40
2023-04-25T06:23:46.383Z,5.10
2023-04-25T06:26:21.647Z,4.40
2023-04-25T06:28:50.356Z,4.40
2023-04-25T06:31:18.906Z,4.70
2023-04-25T06:33:49.462Z,4.10
2023-04-25T06:36:18.041Z,4.00
2023-04-25T06:38:46.969Z,4.20
2023-04-25T06:41:15.002Z,4.00
2023-04-25T06:43:43.022Z,3.90
2023-04-25T06:46:32.457Z,3.30
2023-04-25T06:49:00.797Z,3.30
2023-04-25T06:51:30.907Z,3.30
2023-04-25T06:53:59.377Z,2.80
2023-04-25T06:56:32.470Z,2.80
2023-04-25T06:59:05.722Z,2.80
2023-04-25T07:01:39.412Z,3.10
2023-04-25T07:04:11.438Z,3.50
2023-04-25T07:06:45.055Z,3.50
2023-04-25T07:09:13.882Z,3.40
2023-04-25T07:11:45.408Z,3.70
2023-04-25T07:14:13.864Z,3.90
2023-04-25T07:16:42.031Z,3.80
2023-04-25T07:19:10.138Z,4.00
2023-04-25T07:21:38.789Z,4.90
2023-04-25T07:24:07.524Z,5.20
2023-04-25T07:26:38.545Z,5.70
2023-04-25T07:29:24.797Z,6.30
2023-04-25T07:31:54.036Z,6.00
2023-04-25T07:34:22.525Z,5.70
2023-04-25T07:36:50.842Z,5.60
2023-04-25T07:39:19.081Z,6.10
2023-04-25T07:41:47.224Z,5.80
2023-04-25T07:44:20.189Z,6.30
2023-04-25T07:46:48.462Z,6.30
2023-04-25T07:49:17.335Z,6.50
2023-04-25T07:51:45.836Z,6.50
2023-04-25T07:54:16.727Z,5.90
2023-04-25T07:56:52.509Z,5.60
2023-04-25T07:59:23.070Z,5.90
2023-04-25T08:01:51.537Z,5.50
2023-04-25T08:04:20.427Z,6.00
2023-04-25T08:06:53.571Z,5.60
2023-04-25T08:09:26.896Z,5.50
2023-04-25T08:11:54.949Z,5.10
2023-04-25T08:14:27.710Z,4.90
2023-04-25T08:16:55.982Z,5.20
2023-04-25T08:19:24.876Z,4.60
2023-04-25T08:21:53.513Z,4.80
2023-04-25T08:24:27.532Z,4.80
2023-04-25T08:26:56.875Z,5.30
2023-04-25T08:29:26.895Z,4.90
2023-04-25T08:31:55.681Z,5.00
2023-04-25T08:34:23.938Z,5.80
2023-04-25T08:36:57.326Z,5.70
2023-04-25T08:39:31.837Z,5.40
2023-04-25T08:42:16.442Z,5.60
2023-04-25T08:44:47.344Z,6.40
2023-04-25T08:47:16.017Z,6.50
2023-04-25T08:49:49.501Z,5.80
2023-04-25T08:52:23.683Z,6.10
2023-04-25T08:54:53.833Z,6.10
2023-04-25T08:57:22.844Z,5.90
2023-04-25T08:59:53.007Z,5.40
2023-04-25T09:02:22.232Z,5.00
2023-04-25T09:04:51.595Z,6.00
2023-04-25T09:07:22.311Z,5.30
2023-04-25T09:09:50.291Z,5.80
2023-04-25T09:12:21.238Z,5.50
2023-04-25T09:15:10.685Z,5.60
2023-04-25T09:18:00.616Z,5.00
2023-04-25T09:21:00.940Z,5.30
2023-04-25T09:23:39.452Z,5.70
2023-04-25T09:26:10.587Z,6.20
2023-04-25T09:28:39.751Z,6.40
2023-04-25T09:31:11.679Z,6.10
2023-04-25T09:33:46.866Z,5.10
2023-04-25T09:36:16.360Z,4.30
2023-04-25T09:39:17.241Z,5.50
2023-04-25T09:41:55.304Z,5.60
2023-04-25T09:44:28.160Z,5.90
2023-04-25T09:46:56.727Z,6.30
2023-04-25T09:49:28.874Z,6.20
2023-04-25T09:52:09.777Z,5.60
2023-04-25T09:54:49.102Z,6.50
2023-04-25T09:57:25.317Z,5.80
2023-04-25T09:59:56.561Z,5.80
2023-04-25T10:02:28.354Z,6.40
2023-04-25T10:05:04.643Z,6.50
2023-04-25T10:07:41.132Z,6.30
2023-04-25T10:10:16.645Z,6.20
2023-04-25T10:12:46.215Z,6.10
2023-04-25T10:15:16.457Z,6.10
2023-04-25T10:17:45.932Z,5.40
2023-04-25T10:20:14.576Z,5.60
2023-04-25T10:22:44.873Z,5.20
2023-04-25T10:27:42.634Z,7.70
2023-04-25T10:30:17.903Z,7.20
2023-04-25T10:32:49.524Z,7.70
2023-04-25T10:35:26.404Z,6.60
2023-04-25T10:38:07.873Z,7.20
2023-04-25T10:40:36.330Z,6.80
2023-04-25T10:43:32.584Z,6.00
2023-04-25T10:46:01.503Z,6.10
2023-04-25T10:48:32.172Z,6.70
2023-04-25T10:51:11.028Z,4.90
2023-04-25T10:53:39.233Z,6.90
2023-04-25T10:56:14.500Z,6.50
2023-04-25T10:58:44.512Z,10.40
2023-04-25T11:01:40.062Z,6.30
2023-04-25T11:04:31.474Z,4.10
2023-04-25T11:07:12.614Z,4.10
2023-04-25T11:12:12.794Z,3.10
2023-04-25T11:17:10.659Z,2.70
2023-04-25T11:19:39.112Z,2.40
2023-04-25T11:22:09.000Z,1.90
2023-04-25T11:24:37.965Z,2.10
2023-04-25T11:27:09.627Z,2.80
2023-04-25T11:29:38.017Z,2.50
2023-04-25T11:32:06.548Z,2.60
2023-04-25T11:34:35.565Z,3.30
2023-04-25T11:37:04.711Z,3.50
2023-04-25T11:39:32.826Z,3.10
2023-04-25T11:42:03.862Z,2.90
2023-04-25T11:44:39.809Z,2.40
2023-04-25T11:47:08.238Z,1.80
2023-04-25T11:49:36.894Z,5.10
2023-04-25T11:52:08.418Z,8.30
2023-04-25T11:54:38.376Z,4.60
2023-04-25T11:57:06.648Z,1.40
2023-04-25T11:59:35.379Z,2.50
2023-04-25T12:02:04.051Z,2.00
2023-04-25T12:04:33.398Z,1.20
2023-04-25T12:07:03.290Z,1.40
2023-04-25T12:09:33.324Z,1.60
2023-04-25T12:12:06.866Z,1.60
2023-04-25T12:14:36.798Z,1.20
2023-04-25T12:17:09.356Z,1.50
2023-04-25T12:19:42.467Z,1.50
2023-04-25T12:22:22.758Z,1.40
2023-04-25T12:24:51.466Z,1.50
2023-04-25T12:27:23.566Z,1.50
2023-04-25T12:29:54.107Z,1.50
2023-04-25T12:32:22.947Z,1.90
2023-04-25T12:34:51.497Z,1.70
2023-04-25T12:37:20.736Z,3.20
2023-04-25T12:39:48.699Z,1.80
2023-04-25T12:42:16.817Z,1.90
2023-04-25T12:44:44.653Z,1.60
2023-04-25T12:47:13.673Z,1.20
2023-04-25T12:49:41.644Z,1.60
2023-04-25T12:52:09.523Z,1.60
2023-04-25T12:54:37.723Z,1.30
2023-04-25T12:57:05.741Z,1.20
2023-04-25T12:59:33.879Z,1.10
2023-04-25T13:02:02.865Z,1.60
2023-04-25T13:04:31.053Z,1.10
2023-04-25T13:06:59.197Z,1.40
2023-04-25T13:09:27.495Z,1.40
2023-04-25T13:11:57.291Z,1.40
2023-04-25T13:14:27.588Z,1.30
2023-04-25T13:16:56.008Z,1.30
2023-04-25T13:19:23.989Z,3.10
2023-04-25T13:21:52.217Z,1.90
2023-04-25T13:24:20.188Z,4.50
2023-04-25T13:26:48.348Z,1.30
2023-04-25T13:29:16.744Z,1.40
2023-04-25T13:31:45.064Z,1.40
2023-04-25T13:34:13.861Z,1.20
2023-04-25T13:36:41.911Z,1.40
2023-04-25T13:39:09.949Z,1.20
2023-04-25T13:41:38.175Z,1.40
2023-04-25T13:44:06.210Z,1.40
2023-04-25T13:46:46.282Z,1.40
2023-04-25T13:49:15.645Z,1.10
2023-04-25T13:51:44.031Z,1.40
2023-04-25T13:54:12.251Z,1.40
2023-04-25T13:56:43.504Z,1.30
2023-04-25T13:59:12.480Z,1.30
2023-04-25T14:01:40.888Z,1.20
2023-04-25T14:04:09.963Z,1.30
2023-04-25T14:06:38.618Z,1.40
2023-04-25T14:09:07.815Z,1.60
2023-04-25T14:11:36.027Z,1.30
2023-04-25T14:14:03.983Z,1.40
2023-04-25T14:16:35.294Z,1.30
2023-04-25T14:19:03.156Z,1.20
2023-04-25T14:21:33.416Z,1.40
2023-04-25T14:26:29.822Z,1.50
2023-04-25T14:28:57.739Z,1.60
2023-04-25T14:31:25.971Z,2.10
2023-04-25T14:33:56.977Z,4.00
2023-04-25T14:36:29.298Z,3.90
2023-04-25T14:38:58.137Z,1.30
2023-04-25T14:41:27.339Z,1.40
2023-04-25T14:43:56.884Z,1.90
2023-04-25T14:46:25.084Z,1.50
2023-04-25T14:48:53.273Z,1.40
2023-04-25T14:51:21.927Z,1.70
2023-04-25T14:53:50.115Z,1.30
2023-04-25T14:56:18.411Z,1.50
2023-04-25T14:58:49.252Z,1.50
2023-04-25T15:01:17.400Z,1.00
2023-04-25T15:03:45.725Z,1.10
2023-04-25T15:06:14.000Z,1.50
2023-04-25T15:08:42.753Z,1.10
2023-04-25T15:11:12.159Z,1.50
2023-04-25T15:13:41.473Z,1.20
2023-04-25T15:16:09.619Z,1.30
2023-04-25T15:18:37.684Z,1.60
2023-04-25T15:21:05.980Z,1.70
2023-04-25T15:23:34.895Z,1.60
2023-04-25T15:26:03.487Z,4.50
2023-04-25T15:28:32.504Z,3.40
2023-04-25T15:31:01.406Z,1.80
2023-04-25T15:33:29.476Z,6.60
2023-04-25T15:35:59.146Z,2.10
2023-04-25T15:38:27.588Z,8.90
2023-04-25T15:40:55.602Z,1.50
2023-04-25T15:43:23.698Z,1.40
2023-04-25T15:45:52.511Z,1.70
2023-04-25T15:48:20.772Z,1.80
2023-04-25T15:50:49.634Z,2.10
2023-04-25T15:53:17.687Z,2.10
2023-04-25T15:55:46.813Z,1.90
2023-04-25T15:58:14.968Z,2.10
2023-04-25T16:00:45.381Z,2.10
2023-04-25T16:03:13.618Z,3.10
2023-04-25T16:05:43.088Z,2.30
2023-04-25T16:08:11.153Z,2.30
2023-04-25T16:10:39.482Z,2.10
2023-04-25T16:13:08.394Z,2.30
2023-04-25T16:15:37.027Z,2.60
2023-04-25T16:18:05.260Z,2.70
2023-04-25T16:20:36.247Z,2.10
2023-04-25T16:23:04.450Z,1.90
2023-04-25T16:25:32.544Z,2.10
2023-04-25T16:28:00.604Z,2.00
2023-04-25T16:30:31.488Z,2.00
2023-04-25T16:32:59.780Z,2.40
2023-04-25T16:35:30.797Z,2.30
2023-04-25T16:37:59.120Z,2.40
2023-04-25T16:40:27.345Z,2.50
2023-04-25T16:42:55.613Z,2.90
2023-04-25T16:45:24.599Z,2.50
2023-04-25T16:47:52.751Z,2.50
2023-04-25T16:50:21.216Z,2.40
2023-04-25T16:52:49.855Z,3.70
2023-04-25T16:55:18.111Z,3.40
2023-04-25T16:57:46.105Z,2.50
2023-04-25T17:00:16.696Z,2.60
2023-04-25T17:02:45.497Z,2.80
2023-04-25T17:05:13.727Z,2.60
2023-04-25T17:07:41.643Z,2.90
2023-04-25T17:10:10.588Z,2.50
2023-04-25T17:12:38.554Z,2.60
2023-04-25T17:15:07.472Z,2.80
2023-04-25T17:17:35.928Z,3.80
2023-04-25T17:20:06.612Z,3.70
2023-04-25T17:22:37.736Z,2.90
2023-04-25T17:25:07.486Z,2.50
2023-04-25T17:27:37.159Z,2.80
2023-04-25T17:30:07.221Z,3.00
2023-04-25T17:32:36.087Z,3.10
